sensor_id;sensor_type;location;lat;lon;timestamp;P1;durP1;ratioP1;P2;durP2;ratioP2
40945;SDS011;55635;50.264;11.918;2023-07-29T00:01:38;1.70;;;1.60;;
40945;SDS011;55635;50.264;11.918;2023-07-29T00:04:21;1.95;;;1.75;;
40945;SDS011;55635;50.264;11.918;2023-07-29T00:07:02;1.90;;;1.65;;
40945;SDS011;55635;50.264;11.918;2023-07-29T00:09:43;2.13;;;1.92;;
40945;SDS011;55635;50.264;11.918;2023-07-29T00:12:23;1.98;;;1.88;;
40945;SDS011;55635;50.264;11.918;2023-07-29T00:15:05;3.45;;;1.90;;
40945;SDS011;55635;50.264;11.918;2023-07-29T00:17:46;5.63;;;2.08;;
40945;SDS011;55635;50.264;11.918;2023-07-29T00:20:27;2.78;;;2.00;;
40945;SDS011;55635;50.264;11.918;2023-07-29T00:23:08;2.53;;;2.17;;
40945;SDS011;55635;50.264;11.918;2023-07-29T00:25:49;2.38;;;2.28;;
40945;SDS011;55635;50.264;11.918;2023-07-29T00:28:30;2.58;;;2.38;;
40945;SDS011;55635;50.264;11.918;2023-07-29T00:31:13;2.47;;;2.28;;
40945;SDS011;55635;50.264;11.918;2023-07-29T00:33:53;3.03;;;2.83;;
40945;SDS011;55635;50.264;11.918;2023-07-29T00:36:35;2.58;;;2.17;;
40945;SDS011;55635;50.264;11.918;2023-07-29T00:39:16;2.85;;;2.65;;
40945;SDS011;55635;50.264;11.918;2023-07-29T00:41:57;2.95;;;2.75;;
40945;SDS011;55635;50.264;11.918;2023-07-29T00:44:38;2.92;;;2.60;;
40945;SDS011;55635;50.264;11.918;2023-07-29T00:47:19;2.30;;;2.20;;
40945;SDS011;55635;50.264;11.918;2023-07-29T00:50:03;2.75;;;2.55;;
40945;SDS011;55635;50.264;11.918;2023-07-29T00:52:46;2.28;;;2.17;;
40945;SDS011;55635;50.264;11.918;2023-07-29T00:55:27;3.05;;;2.85;;
40945;SDS011;55635;50.264;11.918;2023-07-29T00:58:09;3.42;;;3.20;;
40945;SDS011;55635;50.264;11.918;2023-07-29T01:00:51;3.83;;;2.80;;
40945;SDS011;55635;50.264;11.918;2023-07-29T01:03:34;4.07;;;3.67;;
40945;SDS011;55635;50.264;11.918;2023-07-29T01:12:54;4.43;;;3.38;;
40945;SDS011;55635;50.264;11.918;2023-07-29T01:15:54;3.95;;;3.65;;
40945;SDS011;55635;50.264;11.918;2023-07-29T01:18:40;3.90;;;3.60;;
40945;SDS011;55635;50.264;11.918;2023-07-29T01:21:26;4.53;;;3.22;;
40945;SDS011;55635;50.264;11.918;2023-07-29T01:24:08;3.55;;;3.25;;
40945;SDS011;55635;50.264;11.918;2023-07-29T01:26:49;3.63;;;3.40;;
40945;SDS011;55635;50.264;11.918;2023-07-29T01:29:31;3.63;;;3.42;;
40945;SDS011;55635;50.264;11.918;2023-07-29T01:35:48;4.80;;;4.40;;
40945;SDS011;55635;50.264;11.918;2023-07-29T01:38:38;5.20;;;4.40;;
40945;SDS011;55635;50.264;11.918;2023-07-29T01:41:21;4.20;;;3.90;;
40945;SDS011;55635;50.264;11.918;2023-07-29T01:44:06;4.00;;;3.65;;
40945;SDS011;55635;50.264;11.918;2023-07-29T01:46:47;3.78;;;3.47;;
40945;SDS011;55635;50.264;11.918;2023-07-29T01:49:30;4.10;;;3.80;;
40945;SDS011;55635;50.264;11.918;2023-07-29T01:52:13;4.25;;;3.40;;
40945;SDS011;55635;50.264;11.918;2023-07-29T01:54:54;4.05;;;3.75;;
40945;SDS011;55635;50.264;11.918;2023-07-29T01:57:35;3.63;;;3.33;;
40945;SDS011;55635;50.264;11.918;2023-07-29T02:00:16;3.65;;;3.30;;
40945;SDS011;55635;50.264;11.918;2023-07-29T02:02:59;3.30;;;3.00;;
40945;SDS011;55635;50.264;11.918;2023-07-29T02:05:40;3.95;;;2.63;;
40945;SDS011;55635;50.264;11.918;2023-07-29T02:08:23;4.03;;;3.60;;
40945;SDS011;55635;50.264;11.918;2023-07-29T02:11:05;3.25;;;3.05;;
40945;SDS011;55635;50.264;11.918;2023-07-29T02:13:46;3.22;;;3.00;;
40945;SDS011;55635;50.264;11.918;2023-07-29T02:16:27;3.42;;;3.15;;
40945;SDS011;55635;50.264;11.918;2023-07-29T02:19:09;5.65;;;3.22;;
40945;SDS011;55635;50.264;11.918;2023-07-29T02:21:50;5.20;;;3.15;;
40945;SDS011;55635;50.264;11.918;2023-07-29T02:24:31;3.58;;;3.28;;
40945;SDS011;55635;50.264;11.918;2023-07-29T02:27:12;3.58;;;2.90;;
40945;SDS011;55635;50.264;11.918;2023-07-29T02:29:53;3.20;;;2.90;;
40945;SDS011;55635;50.264;11.918;2023-07-29T02:32:34;3.97;;;2.88;;
40945;SDS011;55635;50.264;11.918;2023-07-29T02:35:16;3.70;;;3.40;;
40945;SDS011;55635;50.264;11.918;2023-07-29T02:37:57;3.33;;;3.13;;
40945;SDS011;55635;50.264;11.918;2023-07-29T02:40:38;3.42;;;3.13;;
40945;SDS011;55635;50.264;11.918;2023-07-29T02:43:18;3.42;;;3.13;;
40945;SDS011;55635;50.264;11.918;2023-07-29T02:46:02;3.97;;;3.55;;
40945;SDS011;55635;50.264;11.918;2023-07-29T02:48:44;5.93;;;3.45;;
40945;SDS011;55635;50.264;11.918;2023-07-29T02:51:25;4.68;;;4.30;;
40945;SDS011;55635;50.264;11.918;2023-07-29T02:54:06;5.68;;;4.13;;
40945;SDS011;55635;50.264;11.918;2023-07-29T02:56:47;5.18;;;4.78;;
40945;SDS011;55635;50.264;11.918;2023-07-29T02:59:30;5.25;;;4.72;;
40945;SDS011;55635;50.264;11.918;2023-07-29T03:02:11;4.90;;;4.50;;
40945;SDS011;55635;50.264;11.918;2023-07-29T03:04:52;6.00;;;4.55;;
40945;SDS011;55635;50.264;11.918;2023-07-29T03:07:33;5.22;;;4.75;;
40945;SDS011;55635;50.264;11.918;2023-07-29T03:10:13;5.25;;;4.25;;
40945;SDS011;55635;50.264;11.918;2023-07-29T03:12:55;5.65;;;4.72;;
40945;SDS011;55635;50.264;11.918;2023-07-29T03:15:36;5.43;;;4.78;;
40945;SDS011;55635;50.264;11.918;2023-07-29T03:18:17;6.10;;;5.60;;
40945;SDS011;55635;50.264;11.918;2023-07-29T03:20:58;6.00;;;5.25;;
40945;SDS011;55635;50.264;11.918;2023-07-29T03:23:40;5.32;;;4.93;;
40945;SDS011;55635;50.264;11.918;2023-07-29T03:26:21;5.40;;;5.00;;
40945;SDS011;55635;50.264;11.918;2023-07-29T03:29:02;5.22;;;4.82;;
40945;SDS011;55635;50.264;11.918;2023-07-29T03:31:43;5.20;;;4.80;;
40945;SDS011;55635;50.264;11.918;2023-07-29T03:34:24;6.30;;;5.75;;
40945;SDS011;55635;50.264;11.918;2023-07-29T03:37:05;6.03;;;5.43;;
40945;SDS011;55635;50.264;11.918;2023-07-29T03:39:46;6.88;;;5.78;;
40945;SDS011;55635;50.264;11.918;2023-07-29T03:42:28;7.03;;;5.97;;
40945;SDS011;55635;50.264;11.918;2023-07-29T03:45:09;6.40;;;5.80;;
40945;SDS011;55635;50.264;11.918;2023-07-29T03:47:50;6.57;;;5.97;;
40945;SDS011;55635;50.264;11.918;2023-07-29T03:50:32;6.53;;;5.25;;
40945;SDS011;55635;50.264;11.918;2023-07-29T03:53:15;5.97;;;5.47;;
40945;SDS011;55635;50.264;11.918;2023-07-29T03:55:57;5.40;;;4.95;;
40945;SDS011;55635;50.264;11.918;2023-07-29T03:58:38;5.10;;;4.70;;
40945;SDS011;55635;50.264;11.918;2023-07-29T04:01:19;6.10;;;5.50;;
40945;SDS011;55635;50.264;11.918;2023-07-29T04:04:00;6.15;;;5.50;;
40945;SDS011;55635;50.264;11.918;2023-07-29T04:06:41;5.45;;;4.63;;
40945;SDS011;55635;50.264;11.918;2023-07-29T04:09:22;5.10;;;4.60;;
40945;SDS011;55635;50.264;11.918;2023-07-29T04:12:03;5.22;;;4.82;;
40945;SDS011;55635;50.264;11.918;2023-07-29T04:14:45;4.20;;;3.90;;
40945;SDS011;55635;50.264;11.918;2023-07-29T04:17:26;4.60;;;4.05;;
40945;SDS011;55635;50.264;11.918;2023-07-29T04:20:07;4.03;;;3.58;;
40945;SDS011;55635;50.264;11.918;2023-07-29T04:22:49;3.60;;;3.35;;
40945;SDS011;55635;50.264;11.918;2023-07-29T04:25:30;3.38;;;3.08;;
40945;SDS011;55635;50.264;11.918;2023-07-29T04:28:11;3.25;;;3.05;;
40945;SDS011;55635;50.264;11.918;2023-07-29T04:30:52;3.85;;;3.45;;
40945;SDS011;55635;50.264;11.918;2023-07-29T04:33:33;3.53;;;3.22;;
40945;SDS011;55635;50.264;11.918;2023-07-29T04:36:14;4.43;;;3.17;;
40945;SDS011;55635;50.264;11.918;2023-07-29T04:38:58;3.38;;;3.17;;
40945;SDS011;55635;50.264;11.918;2023-07-29T04:41:39;3.47;;;3.17;;
40945;SDS011;55635;50.264;11.918;2023-07-29T04:44:20;4.13;;;3.70;;
40945;SDS011;55635;50.264;11.918;2023-07-29T04:47:01;4.07;;;3.13;;
40945;SDS011;55635;50.264;11.918;2023-07-29T04:49:42;3.75;;;3.25;;
40945;SDS011;55635;50.264;11.918;2023-07-29T04:52:23;3.75;;;3.55;;
40945;SDS011;55635;50.264;11.918;2023-07-29T04:55:04;4.05;;;3.65;;
40945;SDS011;55635;50.264;11.918;2023-07-29T04:57:45;4.85;;;4.50;;
40945;SDS011;55635;50.264;11.918;2023-07-29T05:00:26;5.40;;;5.00;;
40945;SDS011;55635;50.264;11.918;2023-07-29T05:03:07;5.43;;;5.05;;
40945;SDS011;55635;50.264;11.918;2023-07-29T05:05:48;5.38;;;4.90;;
40945;SDS011;55635;50.264;11.918;2023-07-29T05:08:29;5.15;;;4.85;;
40945;SDS011;55635;50.264;11.918;2023-07-29T05:11:10;6.07;;;5.07;;
40945;SDS011;55635;50.264;11.918;2023-07-29T05:13:51;6.00;;;5.40;;
40945;SDS011;55635;50.264;11.918;2023-07-29T05:16:32;5.18;;;4.88;;
40945;SDS011;55635;50.264;11.918;2023-07-29T05:19:13;5.32;;;4.85;;
40945;SDS011;55635;50.264;11.918;2023-07-29T05:21:54;4.35;;;4.05;;
40945;SDS011;55635;50.264;11.918;2023-07-29T05:24:36;5.72;;;4.63;;
40945;SDS011;55635;50.264;11.918;2023-07-29T05:27:16;4.85;;;4.32;;
40945;SDS011;55635;50.264;11.918;2023-07-29T05:29:57;6.32;;;4.82;;
40945;SDS011;55635;50.264;11.918;2023-07-29T05:32:38;4.45;;;4.15;;
40945;SDS011;55635;50.264;11.918;2023-07-29T05:35:20;4.90;;;4.50;;
40945;SDS011;55635;50.264;11.918;2023-07-29T05:38:01;4.50;;;4.20;;
40945;SDS011;55635;50.264;11.918;2023-07-29T05:40:44;5.07;;;4.68;;
40945;SDS011;55635;50.264;11.918;2023-07-29T05:43:25;4.75;;;4.38;;
40945;SDS011;55635;50.264;11.918;2023-07-29T05:46:06;4.57;;;3.75;;
40945;SDS011;55635;50.264;11.918;2023-07-29T05:48:47;4.50;;;4.10;;
40945;SDS011;55635;50.264;11.918;2023-07-29T05:51:28;3.85;;;3.55;;
40945;SDS011;55635;50.264;11.918;2023-07-29T05:54:09;8.45;;;4.22;;
40945;SDS011;55635;50.264;11.918;2023-07-29T05:56:50;3.53;;;3.25;;
40945;SDS011;55635;50.264;11.918;2023-07-29T05:59:30;3.63;;;3.42;;
40945;SDS011;55635;50.264;11.918;2023-07-29T06:02:11;4.07;;;3.78;;
40945;SDS011;55635;50.264;11.918;2023-07-29T06:04:52;4.63;;;3.80;;
40945;SDS011;55635;50.264;11.918;2023-07-29T06:07:33;4.13;;;3.88;;
40945;SDS011;55635;50.264;11.918;2023-07-29T06:10:16;4.30;;;4.00;;
40945;SDS011;55635;50.264;11.918;2023-07-29T06:13:00;3.85;;;3.55;;
40945;SDS011;55635;50.264;11.918;2023-07-29T06:15:41;3.75;;;3.45;;
40945;SDS011;55635;50.264;11.918;2023-07-29T06:18:22;3.38;;;3.13;;
40945;SDS011;55635;50.264;11.918;2023-07-29T06:21:03;3.20;;;2.92;;
40945;SDS011;55635;50.264;11.918;2023-07-29T06:23:47;3.50;;;3.20;;
40945;SDS011;55635;50.264;11.918;2023-07-29T06:26:31;2.85;;;2.53;;
40945;SDS011;55635;50.264;11.918;2023-07-29T06:29:12;3.17;;;2.90;;
40945;SDS011;55635;50.264;11.918;2023-07-29T06:31:53;3.30;;;3.10;;
40945;SDS011;55635;50.264;11.918;2023-07-29T06:34:34;5.82;;;3.22;;
40945;SDS011;55635;50.264;11.918;2023-07-29T06:37:15;2.83;;;2.20;;
40945;SDS011;55635;50.264;11.918;2023-07-29T06:39:56;6.28;;;3.00;;
40945;SDS011;55635;50.264;11.918;2023-07-29T06:42:37;2.88;;;2.67;;
40945;SDS011;55635;50.264;11.918;2023-07-29T06:45:17;2.75;;;2.55;;
40945;SDS011;55635;50.264;11.918;2023-07-29T06:47:58;2.53;;;2.33;;
40945;SDS011;55635;50.264;11.918;2023-07-29T06:50:39;2.40;;;2.20;;
40945;SDS011;55635;50.264;11.918;2023-07-29T06:53:20;2.13;;;1.95;;
40945;SDS011;55635;50.264;11.918;2023-07-29T06:56:01;3.17;;;2.13;;
40945;SDS011;55635;50.264;11.918;2023-07-29T06:58:42;1.60;;;1.50;;
40945;SDS011;55635;50.264;11.918;2023-07-29T07:01:23;1.75;;;1.65;;
40945;SDS011;55635;50.264;11.918;2023-07-29T07:04:04;2.05;;;1.60;;
40945;SDS011;55635;50.264;11.918;2023-07-29T07:06:45;1.52;;;1.42;;
40945;SDS011;55635;50.264;11.918;2023-07-29T07:09:26;1.05;;;1.05;;
40945;SDS011;55635;50.264;11.918;2023-07-29T07:12:07;1.38;;;1.30;;
40945;SDS011;55635;50.264;11.918;2023-07-29T07:14:48;1.17;;;1.00;;
40945;SDS011;55635;50.264;11.918;2023-07-29T07:17:29;1.30;;;1.20;;
40945;SDS011;55635;50.264;11.918;2023-07-29T07:20:10;3.30;;;1.02;;
40945;SDS011;55635;50.264;11.918;2023-07-29T07:22:51;0.70;;;0.70;;
40945;SDS011;55635;50.264;11.918;2023-07-29T07:25:32;0.60;;;0.60;;
40945;SDS011;55635;50.264;11.918;2023-07-29T07:28:13;0.90;;;0.90;;
40945;SDS011;55635;50.264;11.918;2023-07-29T07:30:54;0.85;;;0.60;;
40945;SDS011;55635;50.264;11.918;2023-07-29T07:33:35;0.68;;;0.68;;
40945;SDS011;55635;50.264;11.918;2023-07-29T07:36:16;0.60;;;0.60;;
40945;SDS011;55635;50.264;11.918;2023-07-29T07:38:57;1.58;;;0.55;;
40945;SDS011;55635;50.264;11.918;2023-07-29T07:41:38;3.28;;;0.80;;
40945;SDS011;55635;50.264;11.918;2023-07-29T07:44:22;0.50;;;0.50;;
40945;SDS011;55635;50.264;11.918;2023-07-29T07:47:03;0.73;;;0.73;;
40945;SDS011;55635;50.264;11.918;2023-07-29T07:49:44;0.52;;;0.52;;
40945;SDS011;55635;50.264;11.918;2023-07-29T07:52:25;0.88;;;0.77;;
40945;SDS011;55635;50.264;11.918;2023-07-29T07:55:05;0.70;;;0.70;;
40945;SDS011;55635;50.264;11.918;2023-07-29T07:57:47;0.75;;;0.75;;
40945;SDS011;55635;50.264;11.918;2023-07-29T08:00:28;3.22;;;1.10;;
40945;SDS011;55635;50.264;11.918;2023-07-29T08:03:08;6.57;;;1.67;;
40945;SDS011;55635;50.264;11.918;2023-07-29T08:05:49;6.13;;;1.50;;
40945;SDS011;55635;50.264;11.918;2023-07-29T08:08:30;3.13;;;1.70;;
40945;SDS011;55635;50.264;11.918;2023-07-29T08:11:11;1.42;;;1.33;;
40945;SDS011;55635;50.264;11.918;2023-07-29T08:13:52;1.92;;;1.42;;
40945;SDS011;55635;50.264;11.918;2023-07-29T08:16:33;1.50;;;1.30;;
40945;SDS011;55635;50.264;11.918;2023-07-29T08:19:14;4.55;;;1.50;;
40945;SDS011;55635;50.264;11.918;2023-07-29T08:21:55;4.43;;;1.88;;
40945;SDS011;55635;50.264;11.918;2023-07-29T08:24:36;1.60;;;1.13;;
40945;SDS011;55635;50.264;11.918;2023-07-29T08:27:17;1.88;;;1.05;;
40945;SDS011;55635;50.264;11.918;2023-07-29T08:29:57;1.38;;;1.27;;
40945;SDS011;55635;50.264;11.918;2023-07-29T08:32:38;3.30;;;1.13;;
40945;SDS011;55635;50.264;11.918;2023-07-29T08:35:19;2.85;;;1.17;;
40945;SDS011;55635;50.264;11.918;2023-07-29T08:38:01;1.88;;;1.05;;
40945;SDS011;55635;50.264;11.918;2023-07-29T08:47:06;2.90;;;1.20;;
40945;SDS011;55635;50.264;11.918;2023-07-29T08:49:47;2.22;;;1.17;;
40945;SDS011;55635;50.264;11.918;2023-07-29T08:52:30;1.38;;;1.10;;
40945;SDS011;55635;50.264;11.918;2023-07-29T08:55:12;1.17;;;1.00;;
40945;SDS011;55635;50.264;11.918;2023-07-29T08:57:53;1.30;;;1.00;;
40945;SDS011;55635;50.264;11.918;2023-07-29T09:00:35;1.25;;;1.05;;
40945;SDS011;55635;50.264;11.918;2023-07-29T09:03:16;2.05;;;1.00;;
40945;SDS011;55635;50.264;11.918;2023-07-29T09:05:57;1.90;;;0.95;;
40945;SDS011;55635;50.264;11.918;2023-07-29T09:08:39;4.57;;;1.10;;
40945;SDS011;55635;50.264;11.918;2023-07-29T09:11:20;4.10;;;1.20;;
40945;SDS011;55635;50.264;11.918;2023-07-29T09:14:02;1.85;;;0.73;;
40945;SDS011;55635;50.264;11.918;2023-07-29T09:16:42;0.68;;;0.65;;
40945;SDS011;55635;50.264;11.918;2023-07-29T09:19:27;1.73;;;0.60;;
40945;SDS011;55635;50.264;11.918;2023-07-29T09:22:16;0.77;;;0.60;;
40945;SDS011;55635;50.264;11.918;2023-07-29T09:24:59;2.83;;;0.30;;
40945;SDS011;55635;50.264;11.918;2023-07-29T09:27:40;1.17;;;0.70;;
40945;SDS011;55635;50.264;11.918;2023-07-29T09:30:21;2.72;;;0.52;;
40945;SDS011;55635;50.264;11.918;2023-07-29T09:33:02;0.45;;;0.45;;
40945;SDS011;55635;50.264;11.918;2023-07-29T09:35:47;0.65;;;0.65;;
40945;SDS011;55635;50.264;11.918;2023-07-29T09:38:28;1.20;;;0.30;;
40945;SDS011;55635;50.264;11.918;2023-07-29T09:41:09;0.85;;;0.45;;
40945;SDS011;55635;50.264;11.918;2023-07-29T09:43:57;0.85;;;0.55;;
40945;SDS011;55635;50.264;11.918;2023-07-29T09:46:41;0.55;;;0.55;;
40945;SDS011;55635;50.264;11.918;2023-07-29T09:49:27;0.70;;;0.70;;
40945;SDS011;55635;50.264;11.918;2023-07-29T09:52:07;1.20;;;0.93;;
40945;SDS011;55635;50.264;11.918;2023-07-29T09:54:49;0.93;;;0.60;;
40945;SDS011;55635;50.264;11.918;2023-07-29T09:57:31;0.80;;;0.80;;
40945;SDS011;55635;50.264;11.918;2023-07-29T10:00:12;1.00;;;0.90;;
40945;SDS011;55635;50.264;11.918;2023-07-29T10:02:54;1.90;;;1.80;;
40945;SDS011;55635;50.264;11.918;2023-07-29T10:05:35;1.10;;;1.10;;
40945;SDS011;55635;50.264;11.918;2023-07-29T10:08:19;1.00;;;1.00;;
40945;SDS011;55635;50.264;11.918;2023-07-29T10:11:02;2.75;;;1.10;;
40945;SDS011;55635;50.264;11.918;2023-07-29T10:13:45;0.80;;;0.80;;
40945;SDS011;55635;50.264;11.918;2023-07-29T10:16:26;0.95;;;0.93;;
40945;SDS011;55635;50.264;11.918;2023-07-29T10:19:07;1.92;;;1.40;;
40945;SDS011;55635;50.264;11.918;2023-07-29T10:21:50;1.40;;;1.30;;
40945;SDS011;55635;50.264;11.918;2023-07-29T10:24:32;1.52;;;1.20;;
40945;SDS011;55635;50.264;11.918;2023-07-29T10:27:14;1.88;;;1.33;;
40945;SDS011;55635;50.264;11.918;2023-07-29T10:29:59;1.38;;;1.15;;
40945;SDS011;55635;50.264;11.918;2023-07-29T10:32:43;1.73;;;1.63;;
40945;SDS011;55635;50.264;11.918;2023-07-29T10:35:26;1.23;;;1.10;;
40945;SDS011;55635;50.264;11.918;2023-07-29T10:38:07;1.80;;;1.50;;
40945;SDS011;55635;50.264;11.918;2023-07-29T10:40:52;2.95;;;1.90;;
40945;SDS011;55635;50.264;11.918;2023-07-29T10:43:39;1.98;;;1.88;;
40945;SDS011;55635;50.264;11.918;2023-07-29T10:46:20;2.60;;;2.40;;
40945;SDS011;55635;50.264;11.918;2023-07-29T10:49:03;1.90;;;1.80;;
40945;SDS011;55635;50.264;11.918;2023-07-29T10:51:43;1.55;;;1.45;;
40945;SDS011;55635;50.264;11.918;2023-07-29T10:54:24;3.30;;;2.10;;
40945;SDS011;55635;50.264;11.918;2023-07-29T10:57:05;1.55;;;1.45;;
40945;SDS011;55635;50.264;11.918;2023-07-29T10:59:53;3.10;;;1.70;;
40945;SDS011;55635;50.264;11.918;2023-07-29T11:02:36;1.70;;;1.60;;
40945;SDS011;55635;50.264;11.918;2023-07-29T11:05:18;5.53;;;1.42;;
40945;SDS011;55635;50.264;11.918;2023-07-29T11:07:59;1.15;;;1.05;;
40945;SDS011;55635;50.264;11.918;2023-07-29T11:11:05;2.08;;;1.00;;
40945;SDS011;55635;50.264;11.918;2023-07-29T11:13:48;1.08;;;1.00;;
40945;SDS011;55635;50.264;11.918;2023-07-29T11:16:28;2.53;;;1.10;;
40945;SDS011;55635;50.264;11.918;2023-07-29T11:19:10;1.00;;;0.90;;
40945;SDS011;55635;50.264;11.918;2023-07-29T11:21:59;1.50;;;1.40;;
40945;SDS011;55635;50.264;11.918;2023-07-29T11:24:41;1.17;;;1.00;;
40945;SDS011;55635;50.264;11.918;2023-07-29T11:27:22;1.35;;;1.20;;
40945;SDS011;55635;50.264;11.918;2023-07-29T11:30:04;1.17;;;1.05;;
40945;SDS011;55635;50.264;11.918;2023-07-29T11:32:50;1.08;;;1.05;;
40945;SDS011;55635;50.264;11.918;2023-07-29T11:35:33;1.10;;;0.95;;
40945;SDS011;55635;50.264;11.918;2023-07-29T11:38:14;1.48;;;0.82;;
40945;SDS011;55635;50.264;11.918;2023-07-29T11:41:00;1.63;;;0.85;;
40945;SDS011;55635;50.264;11.918;2023-07-29T11:43:45;0.82;;;0.82;;
40945;SDS011;55635;50.264;11.918;2023-07-29T11:46:26;1.67;;;0.90;;
40945;SDS011;55635;50.264;11.918;2023-07-29T11:49:07;2.10;;;1.00;;
40945;SDS011;55635;50.264;11.918;2023-07-29T11:51:48;0.63;;;0.63;;
40945;SDS011;55635;50.264;11.918;2023-07-29T11:54:29;1.58;;;1.20;;
40945;SDS011;55635;50.264;11.918;2023-07-29T11:57:10;0.98;;;0.70;;
40945;SDS011;55635;50.264;11.918;2023-07-29T11:59:52;1.30;;;0.90;;
40945;SDS011;55635;50.264;11.918;2023-07-29T12:02:34;0.85;;;0.70;;
40945;SDS011;55635;50.264;11.918;2023-07-29T12:05:20;0.77;;;0.77;;
40945;SDS011;55635;50.264;11.918;2023-07-29T12:08:02;1.02;;;0.93;;
40945;SDS011;55635;50.264;11.918;2023-07-29T12:10:43;0.88;;;0.63;;
40945;SDS011;55635;50.264;11.918;2023-07-29T12:13:24;3.42;;;0.70;;
40945;SDS011;55635;50.264;11.918;2023-07-29T12:16:05;0.70;;;0.70;;
40945;SDS011;55635;50.264;11.918;2023-07-29T12:18:46;1.02;;;0.65;;
40945;SDS011;55635;50.264;11.918;2023-07-29T12:21:29;3.08;;;0.75;;
40945;SDS011;55635;50.264;11.918;2023-07-29T12:24:14;1.70;;;0.85;;
40945;SDS011;55635;50.264;11.918;2023-07-29T12:26:55;0.82;;;0.68;;
40945;SDS011;55635;50.264;11.918;2023-07-29T12:29:39;1.80;;;0.73;;
40945;SDS011;55635;50.264;11.918;2023-07-29T12:32:24;2.15;;;0.88;;
40945;SDS011;55635;50.264;11.918;2023-07-29T12:35:09;1.23;;;0.70;;
40945;SDS011;55635;50.264;11.918;2023-07-29T12:37:59;1.23;;;0.75;;
40945;SDS011;55635;50.264;11.918;2023-07-29T12:40:40;1.00;;;0.60;;
40945;SDS011;55635;50.264;11.918;2023-07-29T12:43:25;0.80;;;0.80;;
40945;SDS011;55635;50.264;11.918;2023-07-29T12:46:06;0.50;;;0.50;;
40945;SDS011;55635;50.264;11.918;2023-07-29T12:48:47;1.13;;;0.93;;
40945;SDS011;55635;50.264;11.918;2023-07-29T12:51:27;1.63;;;0.80;;
40945;SDS011;55635;50.264;11.918;2023-07-29T12:54:08;0.80;;;0.73;;
40945;SDS011;55635;50.264;11.918;2023-07-29T12:56:50;1.75;;;0.82;;
40945;SDS011;55635;50.264;11.918;2023-07-29T12:59:31;0.95;;;0.63;;
40945;SDS011;55635;50.264;11.918;2023-07-29T13:02:12;1.52;;;0.60;;
40945;SDS011;55635;50.264;11.918;2023-07-29T13:04:53;0.60;;;0.60;;
40945;SDS011;55635;50.264;11.918;2023-07-29T13:07:34;0.57;;;0.57;;
40945;SDS011;55635;50.264;11.918;2023-07-29T13:10:14;1.05;;;0.60;;
40945;SDS011;55635;50.264;11.918;2023-07-29T13:12:56;0.50;;;0.50;;
40945;SDS011;55635;50.264;11.918;2023-07-29T13:15:36;0.80;;;0.63;;
40945;SDS011;55635;50.264;11.918;2023-07-29T13:18:17;0.98;;;0.73;;
40945;SDS011;55635;50.264;11.918;2023-07-29T13:20:58;1.35;;;0.75;;
40945;SDS011;55635;50.264;11.918;2023-07-29T13:23:42;0.75;;;0.75;;
40945;SDS011;55635;50.264;11.918;2023-07-29T13:26:23;0.70;;;0.70;;
40945;SDS011;55635;50.264;11.918;2023-07-29T13:29:04;2.00;;;0.85;;
40945;SDS011;55635;50.264;11.918;2023-07-29T13:31:45;2.20;;;0.80;;
40945;SDS011;55635;50.264;11.918;2023-07-29T13:34:26;2.33;;;0.98;;
40945;SDS011;55635;50.264;11.918;2023-07-29T13:37:07;0.65;;;0.65;;
40945;SDS011;55635;50.264;11.918;2023-07-29T13:39:48;5.82;;;1.27;;
40945;SDS011;55635;50.264;11.918;2023-07-29T13:42:29;1.42;;;0.63;;
40945;SDS011;55635;50.264;11.918;2023-07-29T13:45:10;0.70;;;0.50;;
40945;SDS011;55635;50.264;11.918;2023-07-29T13:47:50;0.70;;;0.70;;
40945;SDS011;55635;50.264;11.918;2023-07-29T13:50:31;1.95;;;0.93;;
40945;SDS011;55635;50.264;11.918;2023-07-29T13:53:12;0.55;;;0.55;;
40945;SDS011;55635;50.264;11.918;2023-07-29T13:55:53;0.90;;;0.90;;
40945;SDS011;55635;50.264;11.918;2023-07-29T13:58:34;1.23;;;0.85;;
40945;SDS011;55635;50.264;11.918;2023-07-29T14:01:15;0.80;;;0.80;;
40945;SDS011;55635;50.264;11.918;2023-07-29T14:03:56;0.60;;;0.60;;
40945;SDS011;55635;50.264;11.918;2023-07-29T14:06:37;0.90;;;0.80;;
40945;SDS011;55635;50.264;11.918;2023-07-29T14:09:17;1.67;;;0.80;;
40945;SDS011;55635;50.264;11.918;2023-07-29T14:11:58;1.15;;;1.02;;
40945;SDS011;55635;50.264;11.918;2023-07-29T14:14:39;0.70;;;0.70;;
40945;SDS011;55635;50.264;11.918;2023-07-29T14:17:21;0.70;;;0.70;;
40945;SDS011;55635;50.264;11.918;2023-07-29T14:20:02;23.27;;;4.50;;
40945;SDS011;55635;50.264;11.918;2023-07-29T14:22:45;3.38;;;1.05;;
40945;SDS011;55635;50.264;11.918;2023-07-29T14:25:26;2.15;;;1.23;;
40945;SDS011;55635;50.264;11.918;2023-07-29T14:28:08;0.85;;;0.82;;
40945;SDS011;55635;50.264;11.918;2023-07-29T14:30:48;1.27;;;1.17;;
40945;SDS011;55635;50.264;11.918;2023-07-29T14:33:29;1.65;;;0.85;;
40945;SDS011;55635;50.264;11.918;2023-07-29T14:36:10;2.10;;;1.42;;
40945;SDS011;55635;50.264;11.918;2023-07-29T14:38:51;3.67;;;1.60;;
40945;SDS011;55635;50.264;11.918;2023-07-29T14:41:32;0.93;;;0.88;;
40945;SDS011;55635;50.264;11.918;2023-07-29T14:44:13;1.65;;;1.00;;
40945;SDS011;55635;50.264;11.918;2023-07-29T14:46:54;1.80;;;1.33;;
40945;SDS011;55635;50.264;11.918;2023-07-29T14:49:35;1.52;;;1.17;;
40945;SDS011;55635;50.264;11.918;2023-07-29T14:52:15;1.30;;;1.20;;
40945;SDS011;55635;50.264;11.918;2023-07-29T14:54:56;2.45;;;1.08;;
40945;SDS011;55635;50.264;11.918;2023-07-29T14:57:37;1.13;;;1.02;;
40945;SDS011;55635;50.264;11.918;2023-07-29T15:00:20;1.63;;;1.10;;
40945;SDS011;55635;50.264;11.918;2023-07-29T15:03:01;2.60;;;0.85;;
40945;SDS011;55635;50.264;11.918;2023-07-29T15:05:43;1.58;;;1.10;;
40945;SDS011;55635;50.264;11.918;2023-07-29T15:08:24;2.08;;;1.10;;
40945;SDS011;55635;50.264;11.918;2023-07-29T15:11:05;1.77;;;1.02;;
40945;SDS011;55635;50.264;11.918;2023-07-29T15:13:46;0.80;;;0.80;;
40945;SDS011;55635;50.264;11.918;2023-07-29T15:16:27;3.13;;;1.30;;
40945;SDS011;55635;50.264;11.918;2023-07-29T15:19:08;1.65;;;1.10;;
40945;SDS011;55635;50.264;11.918;2023-07-29T15:21:48;2.05;;;1.67;;
40945;SDS011;55635;50.264;11.918;2023-07-29T15:24:30;1.60;;;1.40;;
40945;SDS011;55635;50.264;11.918;2023-07-29T15:27:11;1.42;;;1.30;;
40945;SDS011;55635;50.264;11.918;2023-07-29T15:29:52;1.05;;;0.95;;
40945;SDS011;55635;50.264;11.918;2023-07-29T15:32:36;1.42;;;1.33;;
40945;SDS011;55635;50.264;11.918;2023-07-29T15:35:17;1.67;;;1.58;;
40945;SDS011;55635;50.264;11.918;2023-07-29T15:37:58;1.80;;;1.65;;
40945;SDS011;55635;50.264;11.918;2023-07-29T15:40:38;3.28;;;1.95;;
40945;SDS011;55635;50.264;11.918;2023-07-29T15:43:19;3.17;;;1.83;;
40945;SDS011;55635;50.264;11.918;2023-07-29T15:46:00;3.60;;;2.15;;
40945;SDS011;55635;50.264;11.918;2023-07-29T15:48:41;6.25;;;2.47;;
40945;SDS011;55635;50.264;11.918;2023-07-29T15:51:22;9.40;;;2.72;;
40945;SDS011;55635;50.264;11.918;2023-07-29T15:54:03;5.25;;;1.00;;
40945;SDS011;55635;50.264;11.918;2023-07-29T15:56:44;4.38;;;1.00;;
40945;SDS011;55635;50.264;11.918;2023-07-29T15:59:24;3.22;;;0.85;;
40945;SDS011;55635;50.264;11.918;2023-07-29T16:02:06;3.40;;;0.95;;
40945;SDS011;55635;50.264;11.918;2023-07-29T16:04:48;2.00;;;0.52;;
40945;SDS011;55635;50.264;11.918;2023-07-29T16:07:29;1.55;;;0.70;;
40945;SDS011;55635;50.264;11.918;2023-07-29T16:10:10;1.70;;;0.70;;
40945;SDS011;55635;50.264;11.918;2023-07-29T16:12:51;1.63;;;0.95;;
40945;SDS011;55635;50.264;11.918;2023-07-29T16:15:32;2.55;;;0.90;;